Time;durP1;ratioP1;P1;durP2;ratioP2;P2;SDS_P1;SDS_P2;PMS_P1;PMS_P2;Temp;Humidity;BMP_temperature;BMP_pressure;BME280_temperature;BME280_humidity;BME280_pressure;Samples;Min_cycle;Max_cycle;Signal;HPM_P1;HPM_P2
2024/03/15 00:00:23;;;;;;;4.10;3.40;;;14.50;99.90;;;;;;4924458;29;20459;-70
2024/03/15 00:02:51;;;;;;;3.50;3.20;;;14.50;99.90;;;;;;4938096;28;20449;-68
2024/03/15 00:05:19;;;;;;;3.87;3.47;;;14.50;99.90;;;;;;4951164;28;20439;-68
2024/03/15 00:07:46;;;;;;;3.90;3.50;;;14.50;99.90;;;;;;4942161;29;20423;-68
2024/03/15 00:10:15;;;;;;;3.90;3.50;;;14.50;99.90;;;;;;4924721;29;20978;-69
2024/03/15 00:12:41;;;;;;;4.60;3.87;;;14.50;99.90;;;;;;4955157;28;20465;-69
2024/03/15 00:15:10;;;;;;;4.30;3.90;;;14.50;99.90;;;;;;4959619;28;20510;-68
2024/03/15 00:17:36;;;;;;;7.50;4.10;;;14.50;99.90;;;;;;4924477;29;20465;-69
2024/03/15 00:20:02;;;;;;;4.57;3.70;;;14.50;99.90;;;;;;4895100;29;20571;-68
2024/03/15 00:22:29;;;;;;;4.17;3.77;;;14.50;99.90;;;;;;4908040;29;20472;-69
2024/03/15 00:24:55;;;;;;;4.63;4.10;;;14.50;99.90;;;;;;4941506;29;21089;-69
2024/03/15 00:27:21;;;;;;;4.47;4.07;;;14.50;99.90;;;;;;4924383;29;20459;-69
2024/03/15 00:29:50;;;;;;;3.80;3.50;;;14.40;99.90;;;;;;4924400;29;20986;-69
2024/03/15 00:32:19;;;;;;;3.83;3.53;;;14.50;99.90;;;;;;4924052;29;20526;-69
2024/03/15 00:34:45;;;;;;;3.50;3.20;;;14.40;99.90;;;;;;4923979;29;20554;-69
2024/03/15 00:37:13;;;;;;;5.13;4.30;;;14.40;99.90;;;;;;4923712;29;20475;-69
2024/03/15 00:39:39;;;;;;;4.80;3.47;;;14.40;99.90;;;;;;4908428;29;20477;-69
2024/03/15 00:42:05;;;;;;;5.30;4.10;;;14.40;99.90;;;;;;4941235;29;20423;-69
2024/03/15 00:44:32;;;;;;;4.57;3.97;;;14.40;99.90;;;;;;4907186;29;21096;-69
2024/03/15 00:46:57;;;;;;;4.77;4.30;;;14.40;99.90;;;;;;4923604;29;20436;-69
2024/03/15 00:49:29;;;;;;;4.67;3.83;;;14.40;99.90;;;;;;4928097;28;20517;-69
2024/03/15 00:51:55;;;;;;;4.80;3.43;;;14.40;99.90;;;;;;4953487;28;20461;-69
2024/03/15 00:54:22;;;;;;;3.70;3.40;;;14.40;99.90;;;;;;4923093;29;20842;-69
2024/03/15 00:56:51;;;;;;;4.30;3.53;;;14.40;99.90;;;;;;4923274;29;20423;-69
2024/03/15 00:59:20;;;;;;;4.00;3.60;;;14.40;99.90;;;;;;4939994;28;20430;-69
2024/03/15 01:01:46;;;;;;;12.10;3.87;;;14.40;99.90;;;;;;4923890;29;20416;-69
2024/03/15 01:04:13;;;;;;;4.30;3.90;;;14.40;99.90;;;;;;4923438;29;21297;-69
2024/03/15 01:06:39;;;;;;;3.93;3.43;;;14.40;99.90;;;;;;4922649;29;20503;-69
2024/03/15 01:09:10;;;;;;;4.70;4.30;;;14.40;99.90;;;;;;4940700;29;21010;-69
2024/03/15 01:11:39;;;;;;;4.70;3.80;;;14.40;99.90;;;;;;4922332;29;20460;-69
2024/03/15 01:14:08;;;;;;;3.80;3.40;;;14.40;99.90;;;;;;4922504;29;20415;-69
2024/03/15 01:16:37;;;;;;;3.80;3.50;;;14.40;99.90;;;;;;4906297;29;20462;-69
2024/03/15 01:19:08;;;;;;;4.57;4.17;;;14.40;99.90;;;;;;4907958;29;20515;-69
2024/03/15 01:21:34;;;;;;;4.43;4.03;;;14.40;99.90;;;;;;4938323;28;20486;-69
2024/03/15 01:24:00;;;;;;;5.20;3.87;;;14.40;99.90;;;;;;4907668;29;20482;-69
2024/03/15 01:26:28;;;;;;;3.53;3.23;;;14.20;99.90;;;;;;4923180;29;20442;-69
2024/03/15 01:28:54;;;;;;;5.03;3.70;;;14.40;99.90;;;;;;4922847;29;20846;-69
2024/03/15 01:31:22;;;;;;;3.80;3.50;;;14.40;99.90;;;;;;4915273;29;20474;-69
2024/03/15 01:33:49;;;;;;;6.60;3.90;;;14.40;99.90;;;;;;4922762;29;20435;-69
2024/03/15 01:36:15;;;;;;;3.50;3.10;;;14.30;99.90;;;;;;4942579;28;20442;-69
2024/03/15 01:38:41;;;;;;;4.20;3.90;;;14.40;99.90;;;;;;4935578;28;20918;-69
2024/03/15 01:41:07;;;;;;;4.90;4.13;;;14.30;99.90;;;;;;4907230;29;21122;-69
2024/03/15 01:43:46;;;;;;;3.47;3.10;;;14.30;99.90;;;;;;4922048;29;20475;-69
2024/03/15 01:46:11;;;;;;;4.20;3.80;;;14.30;99.90;;;;;;4939360;29;20966;-69
2024/03/15 01:48:38;;;;;;;5.30;4.10;;;14.30;99.90;;;;;;4939681;29;20787;-69
2024/03/15 01:51:04;;;;;;;4.13;3.73;;;14.40;99.90;;;;;;4923543;28;20461;-69
2024/03/15 01:53:30;;;;;;;4.00;3.60;;;14.30;99.90;;;;;;4922424;29;20431;-69
2024/03/15 01:55:59;;;;;;;5.07;4.57;;;14.30;99.90;;;;;;4906538;29;20454;-69
2024/03/15 01:58:25;;;;;;;4.37;3.97;;;14.30;99.90;;;;;;4922862;29;20416;-69
2024/03/15 02:00:51;;;;;;;4.00;3.63;;;14.30;99.90;;;;;;4890588;29;20463;-69
2024/03/15 02:03:17;;;;;;;4.30;3.90;;;14.30;99.90;;;;;;4940729;28;21200;-68
2024/03/15 02:05:45;;;;;;;4.60;4.20;;;14.30;99.90;;;;;;4934942;29;20455;-68
2024/03/15 02:08:19;;;;;;;4.37;3.97;;;14.30;99.90;;;;;;4958040;28;20422;-68
2024/03/15 02:10:46;;;;;;;4.30;3.90;;;14.30;99.90;;;;;;4911793;29;20467;-68
2024/03/15 02:13:15;;;;;;;4.30;3.90;;;14.30;99.90;;;;;;4939017;29;20884;-71
2024/03/15 02:15:45;;;;;;;3.80;3.50;;;14.30;99.90;;;;;;4916226;29;20526;-68
2024/03/15 02:18:12;;;;;;;3.97;3.60;;;14.30;99.90;;;;;;4937865;29;20420;-68
2024/03/15 02:20:38;;;;;;;4.93;4.43;;;14.30;99.90;;;;;;4925446;28;20537;-69
2024/03/15 02:23:06;;;;;;;4.50;4.10;;;14.30;99.90;;;;;;4939800;28;20501;-69
2024/03/15 02:25:37;;;;;;;4.60;4.30;;;14.30;99.90;;;;;;4939475;29;20419;-69
2024/03/15 02:28:06;;;;;;;10.57;4.50;;;14.30;99.90;;;;;;4922262;29;20575;-69
2024/03/15 02:30:32;;;;;;;4.43;4.03;;;14.30;99.90;;;;;;4940091;28;20462;-69
2024/03/15 02:32:58;;;;;;;4.73;3.17;;;14.30;99.90;;;;;;4921810;29;20441;-69
2024/03/15 02:35:27;;;;;;;4.73;3.70;;;14.30;99.90;;;;;;4938833;29;20447;-69
2024/03/15 02:37:53;;;;;;;3.80;3.33;;;14.30;99.90;;;;;;4921957;29;20498;-69
2024/03/15 02:40:19;;;;;;;4.30;3.90;;;14.30;99.90;;;;;;4891076;29;20463;-69
2024/03/15 02:42:46;;;;;;;6.50;4.10;;;14.30;99.90;;;;;;4939938;29;20452;-69
2024/03/15 02:45:12;;;;;;;4.30;3.90;;;14.50;99.90;;;;;;4939097;29;20420;-69
2024/03/15 02:47:38;;;;;;;4.13;3.73;;;14.30;99.90;;;;;;4937768;29;20407;-70
2024/03/15 02:50:06;;;;;;;4.23;3.83;;;14.30;99.90;;;;;;4939865;28;21172;-69
2024/03/15 02:52:32;;;;;;;4.67;3.80;;;14.30;99.90;;;;;;4925651;29;20656;-69
2024/03/15 02:54:58;;;;;;;5.40;4.13;;;14.30;99.90;;;;;;4909481;29;20470;-69
2024/03/15 02:57:24;;;;;;;4.90;3.57;;;14.30;99.90;;;;;;4925004;29;20443;-69
2024/03/15 02:59:50;;;;;;;5.30;4.67;;;14.30;99.90;;;;;;4941970;28;20447;-69
2024/03/15 03:02:16;;;;;;;4.10;3.70;;;14.30;99.90;;;;;;4925612;29;20427;-69
2024/03/15 03:04:42;;;;;;;4.73;4.30;;;14.20;99.90;;;;;;4944663;28;20466;-69
2024/03/15 03:07:08;;;;;;;3.97;3.67;;;14.20;99.90;;;;;;4934895;29;20463;-69
2024/03/15 03:09:34;;;;;;;4.50;4.10;;;14.20;99.90;;;;;;4938053;28;20496;-69
2024/03/15 03:12:01;;;;;;;4.53;4.13;;;14.20;99.90;;;;;;4962120;28;20419;-69
2024/03/15 03:14:29;;;;;;;3.87;3.57;;;14.20;99.90;;;;;;4925478;29;20471;-69
2024/03/15 03:16:55;;;;;;;4.60;4.20;;;14.20;99.90;;;;;;4916902;28;20441;-69
2024/03/15 03:19:23;;;;;;;4.30;3.80;;;14.30;99.90;;;;;;4945247;28;20443;-69
2024/03/15 03:21:55;;;;;;;3.47;3.20;;;14.20;99.90;;;;;;4909971;29;20439;-70
2024/03/15 03:24:23;;;;;;;4.60;4.20;;;14.20;99.90;;;;;;4925244;29;20471;-69
2024/03/15 03:26:50;;;;;;;4.20;3.80;;;14.20;99.90;;;;;;4918517;29;20456;-69
2024/03/15 03:29:16;;;;;;;4.40;4.00;;;14.20;99.90;;;;;;4941864;28;20423;-69
2024/03/15 03:31:42;;;;;;;4.77;4.37;;;14.20;99.90;;;;;;4893530;29;21155;-69
2024/03/15 03:34:08;;;;;;;4.10;3.70;;;14.20;99.90;;;;;;4910536;28;20455;-69
2024/03/15 03:36:37;;;;;;;4.60;4.13;;;14.20;99.90;;;;;;4944014;28;20470;-69
2024/03/15 03:39:05;;;;;;;6.93;4.30;;;14.20;99.90;;;;;;4912282;28;20436;-69
2024/03/15 03:41:31;;;;;;;8.13;4.00;;;14.20;99.90;;;;;;4927933;28;20466;-69
2024/03/15 03:43:57;;;;;;;6.33;3.80;;;14.20;99.90;;;;;;4943288;28;20478;-69
2024/03/15 03:46:25;;;;;;;4.23;3.77;;;14.20;99.90;;;;;;4912332;28;20501;-69
2024/03/15 03:48:50;;;;;;;3.90;3.60;;;14.20;99.90;;;;;;4962021;28;20178;-69
2024/03/15 03:51:18;;;;;;;4.77;4.37;;;14.20;99.90;;;;;;4959526;28;20442;-69
2024/03/15 03:53:46;;;;;;;4.17;3.80;;;14.20;99.90;;;;;;4943090;28;20435;-69
2024/03/15 03:56:15;;;;;;;4.07;3.77;;;14.20;99.90;;;;;;4943925;28;20442;-69
2024/03/15 03:58:46;;;;;;;4.17;3.87;;;14.20;99.90;;;;;;4961862;28;20410;-69
2024/03/15 04:01:14;;;;;;;5.00;4.20;;;14.20;99.90;;;;;;4933376;28;20470;-69
2024/03/15 04:03:40;;;;;;;4.10;3.80;;;14.20;99.90;;;;;;4938056;28;20496;-69
2024/03/15 04:06:09;;;;;;;4.20;3.90;;;14.20;99.90;;;;;;4911805;28;20434;-69
2024/03/15 04:08:38;;;;;;;4.00;3.60;;;14.20;99.90;;;;;;4943031;28;20565;-69
2024/03/15 04:11:04;;;;;;;5.37;3.77;;;14.20;99.90;;;;;;4943399;28;20970;-69
2024/03/15 04:13:30;;;;;;;4.03;3.73;;;14.20;99.90;;;;;;4959750;28;20453;-69
2024/03/15 04:15:58;;;;;;;4.80;3.80;;;14.20;99.90;;;;;;4952606;28;20439;-69
2024/03/15 04:18:25;;;;;;;3.93;3.60;;;14.10;99.90;;;;;;4908245;29;20443;-69
2024/03/15 04:20:53;;;;;;;3.97;3.53;;;14.10;99.90;;;;;;4957746;28;20896;-69
2024/03/15 04:23:22;;;;;;;4.00;3.67;;;14.10;99.90;;;;;;4943151;28;20564;-69
2024/03/15 04:25:51;;;;;;;4.60;4.20;;;14.10;99.90;;;;;;4952925;28;21026;-69
2024/03/15 04:28:19;;;;;;;4.20;3.80;;;14.10;99.90;;;;;;4908059;29;20427;-69
2024/03/15 04:30:48;;;;;;;4.03;3.63;;;14.10;99.90;;;;;;4923637;29;20428;-69
2024/03/15 04:33:17;;;;;;;4.43;3.70;;;14.10;99.90;;;;;;4927307;28;20465;-68
2024/03/15 04:35:43;;;;;;;4.50;4.10;;;14.10;99.90;;;;;;4913215;29;20506;-70
2024/03/15 04:38:09;;;;;;;4.10;3.70;;;14.10;99.90;;;;;;4923816;29;20443;-70
2024/03/15 04:40:37;;;;;;;4.43;4.03;;;14.10;99.90;;;;;;4908630;29;20450;-71
2024/03/15 04:43:03;;;;;;;4.53;4.10;;;14.10;99.90;;;;;;4942593;29;20828;-69
2024/03/15 04:45:32;;;;;;;4.87;4.43;;;14.10;99.90;;;;;;4942996;29;20451;-71
2024/03/15 04:48:01;;;;;;;3.90;3.60;;;14.10;99.90;;;;;;4892683;29;20435;-70
2024/03/15 04:50:27;;;;;;;6.50;4.00;;;14.10;99.90;;;;;;4940774;28;20463;-70
2024/03/15 04:52:55;;;;;;;3.77;3.47;;;14.10;99.90;;;;;;4956255;28;21044;-70
2024/03/15 04:55:24;;;;;;;4.00;3.60;;;14.10;99.90;;;;;;4943001;28;20427;-70
2024/03/15 04:57:53;;;;;;;7.03;4.20;;;14.10;99.90;;;;;;4927867;29;20423;-70
2024/03/15 05:00:21;;;;;;;4.90;4.40;;;14.10;99.90;;;;;;4923008;29;20447;-70
2024/03/15 05:02:48;;;;;;;4.40;3.90;;;14.10;99.90;;;;;;4921982;29;20614;-70
2024/03/15 05:05:15;;;;;;;4.17;3.70;;;14.10;99.90;;;;;;4942970;28;20463;-70
2024/03/15 05:07:43;;;;;;;3.70;3.40;;;14.10;99.90;;;;;;4925825;28;20434;-70
2024/03/15 05:10:14;;;;;;;4.63;4.17;;;14.10;99.90;;;;;;4932792;29;20451;-70
2024/03/15 05:12:43;;;;;;;4.90;3.53;;;14.10;99.90;;;;;;4922612;29;20917;-70
2024/03/15 05:15:12;;;;;;;3.70;3.40;;;14.10;99.90;;;;;;4940170;29;20430;-70
2024/03/15 05:17:43;;;;;;;4.00;3.60;;;14.00;99.90;;;;;;4940426;29;20459;-70
2024/03/15 05:20:14;;;;;;;4.27;3.87;;;14.00;99.90;;;;;;4939603;28;20446;-70
2024/03/15 05:22:43;;;;;;;3.90;3.50;;;14.00;99.90;;;;;;4906473;29;20482;-70
2024/03/15 05:25:14;;;;;;;3.20;3.00;;;14.10;99.90;;;;;;4922327;28;20480;-69
2024/03/15 05:27:40;;;;;;;4.20;3.90;;;14.00;99.90;;;;;;4908846;29;20443;-68
2024/03/15 05:30:07;;;;;;;4.00;3.60;;;14.00;99.90;;;;;;4943200;28;20443;-68
2024/03/15 05:32:35;;;;;;;4.77;4.30;;;14.00;99.90;;;;;;4931091;28;20962;-69
2024/03/15 05:35:01;;;;;;;6.53;3.80;;;14.00;99.90;;;;;;4908593;29;20567;-68
2024/03/15 05:37:30;;;;;;;3.97;3.67;;;14.00;99.90;;;;;;4912651;23;20500;-29
2024/03/15 05:39:59;;;;;;;4.37;3.60;;;14.00;99.90;;;;;;4906761;29;20955;-24
2024/03/15 05:42:27;;;;;;;6.83;4.47;;;14.00;99.90;;;;;;4923693;29;21262;-27
2024/03/15 05:44:53;;;;;;;3.53;3.33;;;14.00;99.90;;;;;;4907994;29;20475;-26
2024/03/15 05:47:21;;;;;;;4.40;3.80;;;14.00;99.90;;;;;;4926218;29;20452;-30
2024/03/15 05:49:46;;;;;;;4.37;3.57;;;14.00;99.90;;;;;;4926298;29;21157;-25
2024/03/15 05:52:19;;;;;;;3.60;3.30;;;14.00;99.90;;;;;;4925061;29;20840;-24
2024/03/15 05:54:47;;;;;;;3.70;3.40;;;14.00;99.90;;;;;;4894038;29;20519;-27
2024/03/15 05:57:13;;;;;;;4.80;3.73;;;14.00;99.90;;;;;;4920818;29;20471;-25
2024/03/15 05:59:40;;;;;;;3.80;3.40;;;14.00;99.90;;;;;;4920246;29;20448;-24
2024/03/15 06:02:09;;;;;;;4.10;3.80;;;14.00;99.90;;;;;;4920465;29;20468;-24
2024/03/15 06:04:37;;;;;;;5.13;3.30;;;14.10;99.90;;;;;;4919647;29;20471;-26
2024/03/15 06:07:03;;;;;;;4.80;3.60;;;14.00;99.90;;;;;;4901066;29;20471;-25
2024/03/15 06:09:30;;;;;;;4.40;4.00;;;14.00;99.90;;;;;;4885145;29;20987;-26
2024/03/15 06:11:56;;;;;;;4.00;3.30;;;14.00;99.90;;;;;;4920615;29;20486;-24
2024/03/15 06:14:27;;;;;;;5.40;3.40;;;14.00;99.90;;;;;;4903709;29;20428;-25
2024/03/15 06:16:54;;;;;;;4.00;3.70;;;13.70;99.90;;;;;;4919504;29;20456;-25
2024/03/15 06:19:22;;;;;;;4.20;3.60;;;13.70;99.90;;;;;;4919786;29;20444;-25
2024/03/15 06:21:51;;;;;;;3.93;3.17;;;14.00;99.90;;;;;;4887506;29;20495;-25
2024/03/15 06:24:19;;;;;;;6.70;3.93;;;14.00;99.90;;;;;;4887010;29;20917;-24
2024/03/15 06:26:48;;;;;;;4.27;3.87;;;14.00;99.90;;;;;;4906191;29;20456;-24
2024/03/15 06:29:16;;;;;;;3.80;3.50;;;14.00;99.90;;;;;;4923152;29;21293;-24
2024/03/15 06:31:43;;;;;;;4.10;3.40;;;14.00;99.90;;;;;;4923451;29;21050;-25
2024/03/15 06:34:09;;;;;;;3.83;3.43;;;14.00;99.90;;;;;;4923777;29;20436;-25
2024/03/15 06:36:43;;;;;;;3.90;3.50;;;14.00;99.90;;;;;;4906280;29;21210;-25
2024/03/15 06:40:01;;;;;;;4.03;3.63;;;14.00;99.90;;;;;;4923261;29;20890;-25
2024/03/15 06:42:23;;;;;;;4.83;3.80;;;14.00;99.90;;;;;;4888795;29;20467;-26
2024/03/15 06:45:12;;;;;;;4.50;4.10;;;14.00;99.90;;;;;;4905810;29;20573;-26
2024/03/15 06:47:40;;;;;;;4.00;3.60;;;14.00;99.90;;;;;;4922116;29;20451;-24
2024/03/15 06:50:30;;;;;;;6.00;4.20;;;14.00;99.90;;;;;;4905361;29;20428;-25
2024/03/15 06:52:55;;;;;;;5.67;4.10;;;14.00;99.90;;;;;;4923310;29;20428;-26
2024/03/15 06:55:21;;;;;;;4.93;4.20;;;14.00;99.90;;;;;;4923547;29;20434;-25
2024/03/15 06:57:48;;;;;;;3.73;3.43;;;14.00;99.90;;;;;;4906097;29;20443;-25
2024/03/15 07:00:15;;;;;;;5.57;3.83;;;14.00;99.90;;;;;;4922909;29;20428;-26
2024/03/15 07:02:43;;;;;;;4.23;3.63;;;14.10;99.90;;;;;;4906570;29;21247;-26
2024/03/15 07:05:16;;;;;;;4.60;3.57;;;14.00;99.90;;;;;;4922936;29;20991;-25
2024/03/15 07:07:42;;;;;;;4.90;4.30;;;14.00;99.90;;;;;;4923116;29;20975;-25
2024/03/15 07:10:13;;;;;;;3.93;3.63;;;14.00;99.90;;;;;;4906304;29;20459;-25
2024/03/15 07:12:39;;;;;;;4.93;3.57;;;14.00;99.90;;;;;;4922160;29;21003;-25
2024/03/15 07:15:09;;;;;;;4.63;3.90;;;14.00;99.90;;;;;;4924100;29;20455;-22
2024/03/15 07:17:39;;;;;;;5.10;4.00;;;14.00;99.90;;;;;;4905193;29;20456;-25
2024/03/15 07:20:07;;;;;;;5.23;4.30;;;14.00;99.90;;;;;;4904839;29;21079;-24
2024/03/15 07:22:34;;;;;;;7.70;4.17;;;14.10;99.90;;;;;;4905144;29;20437;-26
2024/03/15 07:25:06;;;;;;;4.73;3.70;;;14.00;99.90;;;;;;4904765;29;20919;-26
2024/03/15 07:27:32;;;;;;;4.70;4.30;;;14.00;99.90;;;;;;4904607;29;20504;-25
2024/03/15 07:30:00;;;;;;;4.87;4.37;;;14.10;99.90;;;;;;4910706;29;20511;-27
2024/03/15 07:32:30;;;;;;;5.43;4.87;;;14.10;99.90;;;;;;4906260;29;20463;-25
2024/03/15 07:34:56;;;;;;;4.47;4.07;;;14.10;99.90;;;;;;4905595;29;20441;-25
2024/03/15 07:37:24;;;;;;;7.13;4.07;;;14.10;99.90;;;;;;4921916;29;21156;-25
2024/03/15 07:39:51;;;;;;;6.07;4.07;;;14.10;99.90;;;;;;4923057;29;20487;-25
2024/03/15 07:42:19;;;;;;;6.63;4.10;;;14.10;99.90;;;;;;4922335;29;21137;-25
2024/03/15 07:44:48;;;;;;;7.10;3.73;;;14.10;99.90;;;;;;4905886;29;20824;-25
2024/03/15 07:47:15;;;;;;;3.60;3.30;;;14.10;99.90;;;;;;4922642;29;20588;-25
2024/03/15 07:49:41;;;;;;;4.13;3.30;;;14.10;99.90;;;;;;4924244;29;20432;-24
2024/03/15 07:52:10;;;;;;;6.20;3.80;;;14.10;99.90;;;;;;4922574;29;20434;-24
2024/03/15 07:54:36;;;;;;;8.80;4.67;;;14.10;99.90;;;;;;4923166;29;20446;-25
2024/03/15 07:57:02;;;;;;;7.93;3.97;;;14.10;99.90;;;;;;4906504;29;20458;-23
2024/03/15 07:59:28;;;;;;;4.43;4.03;;;14.10;99.90;;;;;;4905356;29;20438;-25
2024/03/15 08:01:55;;;;;;;5.17;3.80;;;14.10;99.90;;;;;;4922385;29;20436;-25
2024/03/15 08:04:21;;;;;;;4.20;3.80;;;14.10;99.90;;;;;;4904625;29;20475;-24
2024/03/15 08:06:47;;;;;;;4.40;3.80;;;14.10;99.90;;;;;;4906189;29;20496;-25
2024/03/15 08:09:15;;;;;;;4.50;3.90;;;14.10;99.90;;;;;;4904510;29;20425;-25
2024/03/15 08:11:42;;;;;;;5.97;4.77;;;14.10;99.90;;;;;;4905638;29;20954;-24
2024/03/15 08:14:08;;;;;;;7.87;4.20;;;14.10;99.90;;;;;;4904550;29;20584;-26
2024/03/15 08:16:39;;;;;;;5.97;4.03;;;14.10;99.90;;;;;;4921990;29;20477;-25
2024/03/15 08:19:07;;;;;;;5.33;4.10;;;14.10;99.90;;;;;;4922104;29;20431;-24
2024/03/15 08:21:33;;;;;;;4.53;4.10;;;14.10;99.90;;;;;;4921839;29;20433;-25
2024/03/15 08:24:09;;;;;;;5.00;3.80;;;14.10;99.90;;;;;;4922161;29;20480;-25
2024/03/15 08:26:39;;;;;;;4.63;3.90;;;14.10;99.90;;;;;;4921782;29;20468;-25
2024/03/15 08:29:08;;;;;;;5.87;3.90;;;14.10;99.90;;;;;;4922513;29;20421;-25
2024/03/15 08:31:34;;;;;;;3.80;3.40;;;14.20;99.90;;;;;;4895959;29;20452;-25
2024/03/15 08:34:02;;;;;;;4.30;3.90;;;14.20;99.90;;;;;;4922810;29;20431;-24
2024/03/15 08:36:32;;;;;;;6.37;3.70;;;14.20;99.90;;;;;;4921331;29;20451;-24
2024/03/15 08:39:04;;;;;;;3.90;3.60;;;14.20;99.90;;;;;;4914287;29;20450;-25
2024/03/15 08:41:31;;;;;;;4.90;4.43;;;14.20;99.90;;;;;;4891962;29;20939;-26
2024/03/15 08:43:57;;;;;;;6.00;3.90;;;14.20;99.90;;;;;;4896585;29;20504;-24
2024/03/15 08:46:23;;;;;;;4.53;3.90;;;14.20;99.90;;;;;;4921858;29;20444;-25
2024/03/15 08:48:50;;;;;;;4.33;4.00;;;14.20;99.90;;;;;;4903660;29;20432;-24
2024/03/15 08:51:17;;;;;;;4.80;4.37;;;14.20;99.90;;;;;;4921384;29;20443;-25
2024/03/15 08:53:47;;;;;;;4.63;3.43;;;14.20;99.90;;;;;;4921506;29;20963;-24
2024/03/15 08:56:13;;;;;;;4.50;4.03;;;14.20;99.90;;;;;;4904626;29;20460;-25
2024/03/15 08:58:39;;;;;;;5.93;4.07;;;14.20;99.90;;;;;;4906226;29;20428;-25
2024/03/15 09:01:13;;;;;;;4.17;3.60;;;14.20;99.90;;;;;;4921586;29;20655;-25
2024/03/15 09:03:39;;;;;;;4.07;3.60;;;14.20;99.90;;;;;;4903052;29;20631;-25
2024/03/15 09:06:08;;;;;;;5.87;4.00;;;14.20;99.90;;;;;;4902899;29;20478;-26
2024/03/15 09:08:36;;;;;;;4.33;3.93;;;14.20;99.90;;;;;;4919192;29;20524;-25
2024/03/15 09:11:06;;;;;;;5.67;4.50;;;14.20;99.90;;;;;;4888021;29;20420;-25
2024/03/15 09:13:35;;;;;;;4.60;4.20;;;14.20;99.90;;;;;;4921950;29;20859;-25
2024/03/15 09:16:06;;;;;;;5.40;4.00;;;14.10;99.90;;;;;;4922765;29;20462;-22
2024/03/15 09:18:33;;;;;;;4.43;4.03;;;14.20;99.90;;;;;;4905618;29;20432;-24
2024/03/15 09:20:59;;;;;;;4.90;4.10;;;14.20;99.90;;;;;;4905276;29;20447;-23
2024/03/15 09:23:26;;;;;;;4.67;4.17;;;14.20;99.90;;;;;;4922543;29;20480;-24
2024/03/15 09:25:54;;;;;;;4.87;4.17;;;14.30;99.90;;;;;;4905670;29;20457;-25
2024/03/15 09:28:23;;;;;;;6.93;4.10;;;14.30;99.90;;;;;;4927415;29;20487;-26
2024/03/15 09:30:53;;;;;;;4.73;4.30;;;14.30;99.90;;;;;;4925632;29;21124;-32
2024/03/15 09:33:27;;;;;;;5.87;4.60;;;14.30;99.90;;;;;;4905028;29;20572;-28
2024/03/15 09:35:53;;;;;;;4.63;3.73;;;14.30;99.90;;;;;;4901390;29;21170;-30
2024/03/15 09:38:22;;;;;;;6.27;4.63;;;14.30;99.90;;;;;;4922199;29;20452;-28
2024/03/15 09:40:55;;;;;;;5.57;4.20;;;14.30;99.90;;;;;;4922434;29;20436;-28
2024/03/15 09:43:21;;;;;;;4.53;4.10;;;14.30;99.90;;;;;;4872500;29;20619;-26
2024/03/15 09:45:48;;;;;;;4.30;3.93;;;14.30;99.90;;;;;;4888126;29;20463;-28
2024/03/15 09:48:16;;;;;;;4.53;4.13;;;14.40;99.90;;;;;;4903307;29;20416;-29
2024/03/15 09:50:46;;;;;;;3.83;3.40;;;14.40;99.90;;;;;;4921342;29;21287;-26
2024/03/15 09:53:12;;;;;;;4.57;3.63;;;14.40;99.90;;;;;;4903734;29;20421;-26
2024/03/15 09:55:40;;;;;;;7.50;4.40;;;14.30;99.90;;;;;;4922037;29;20432;-30
2024/03/15 09:58:09;;;;;;;4.93;4.03;;;14.40;99.90;;;;;;4905125;29;20436;-29
2024/03/15 10:00:35;;;;;;;6.30;4.40;;;14.40;99.90;;;;;;4921686;29;20435;-29
2024/03/15 10:03:08;;;;;;;4.00;3.63;;;14.40;99.90;;;;;;4905052;29;20460;-27
2024/03/15 10:05:34;;;;;;;8.20;4.03;;;14.50;99.90;;;;;;4905389;29;20420;-27
2024/03/15 10:08:00;;;;;;;4.87;3.70;;;14.50;99.90;;;;;;4925785;29;20431;-29
2024/03/15 10:10:32;;;;;;;4.20;3.60;;;14.50;99.90;;;;;;4919877;29;20479;-27
2024/03/15 10:13:00;;;;;;;6.23;4.30;;;14.50;99.90;;;;;;4905996;29;20891;-31
2024/03/15 10:15:26;;;;;;;8.37;4.00;;;14.50;99.90;;;;;;4905324;29;20897;-27
2024/03/15 10:17:53;;;;;;;5.37;4.00;;;14.50;99.90;;;;;;4923681;29;20789;-26
2024/03/15 10:20:25;;;;;;;3.60;3.27;;;14.60;99.90;;;;;;4921280;29;20447;-31
2024/03/15 10:22:54;;;;;;;5.50;3.40;;;14.60;99.90;;;;;;4922790;29;20471;-28
2024/03/15 10:25:25;;;;;;;4.27;3.80;;;14.60;99.90;;;;;;4905186;29;20535;-29
2024/03/15 10:27:55;;;;;;;4.87;3.30;;;14.60;99.90;;;;;;4922696;29;20428;-30
2024/03/15 10:30:23;;;;;;;3.80;3.50;;;14.60;99.90;;;;;;4922500;29;20968;-30
2024/03/15 10:32:53;;;;;;;3.77;3.30;;;14.60;99.90;;;;;;4890475;29;20428;-26
2024/03/15 10:35:22;;;;;;;4.20;3.10;;;14.60;99.90;;;;;;4908471;29;20446;-27
2024/03/15 10:38:15;;;;;;;4.80;3.50;;;14.60;99.90;;;;;;4930231;29;20781;-28
2024/03/15 10:40:43;;;;;;;6.17;3.40;;;14.70;99.90;;;;;;4923420;29;21108;-26
2024/03/15 10:43:13;;;;;;;4.83;3.13;;;14.70;99.90;;;;;;4907469;29;20537;-29
2024/03/15 10:45:47;;;;;;;3.83;3.07;;;14.70;99.90;;;;;;4925145;29;21073;-28
2024/03/15 10:48:15;;;;;;;4.03;3.30;;;14.70;99.90;;;;;;4924592;29;20427;-26
2024/03/15 10:50:43;;;;;;;6.90;3.03;;;14.70;99.90;;;;;;4924390;29;20427;-29
2024/03/15 10:53:16;;;;;;;3.50;3.20;;;14.70;99.90;;;;;;4924164;29;20451;-27
2024/03/15 10:55:47;;;;;;;3.37;3.07;;;14.70;99.90;;;;;;4922823;29;20428;-31
2024/03/15 10:58:17;;;;;;;3.37;2.97;;;14.80;99.90;;;;;;4923829;29;20968;-28
2024/03/15 11:00:45;;;;;;;3.80;2.90;;;14.70;99.90;;;;;;4892098;29;20975;-26
2024/03/15 11:03:18;;;;;;;4.30;2.77;;;14.80;99.90;;;;;;4929763;29;20518;-28
2024/03/15 11:05:47;;;;;;;3.30;3.00;;;14.80;99.90;;;;;;4921907;29;20464;-28
2024/03/15 11:08:15;;;;;;;3.90;3.03;;;14.80;99.90;;;;;;4888928;29;21093;-25
2024/03/15 11:10:54;;;;;;;3.53;3.23;;;14.80;99.90;;;;;;4923466;29;20456;-27
2024/03/15 11:13:23;;;;;;;3.67;2.80;;;14.80;99.90;;;;;;4911805;29;20459;-29
2024/03/15 11:15:49;;;;;;;3.83;2.67;;;15.00;99.90;;;;;;4926250;29;20464;-31
2024/03/15 11:18:19;;;;;;;3.27;2.70;;;14.90;99.90;;;;;;4907730;29;20428;-29
2024/03/15 11:20:46;;;;;;;4.37;2.80;;;14.90;99.90;;;;;;4909919;29;20470;-25
2024/03/15 11:23:12;;;;;;;3.07;2.87;;;14.90;99.90;;;;;;4911271;29;20478;-31
2024/03/15 11:25:38;;;;;;;5.70;2.60;;;14.90;99.90;;;;;;4907322;29;20515;-30
2024/03/15 11:28:04;;;;;;;4.53;2.97;;;14.90;99.90;;;;;;4907141;29;20432;-28
2024/03/15 11:30:31;;;;;;;3.00;2.80;;;15.00;99.90;;;;;;4925755;29;20531;-29
2024/03/15 11:33:00;;;;;;;3.80;2.73;;;15.30;99.90;;;;;;4907671;29;20461;-28
2024/03/15 11:35:26;;;;;;;2.80;2.60;;;15.00;99.90;;;;;;4926329;29;20964;-28
2024/03/15 11:37:55;;;;;;;3.60;2.77;;;15.00;99.90;;;;;;4907270;29;20848;-29
2024/03/15 11:40:27;;;;;;;2.83;2.53;;;15.10;99.90;;;;;;4910240;29;20472;-26
2024/03/15 11:42:53;;;;;;;2.77;2.57;;;15.10;99.90;;;;;;4906512;29;20543;-25
2024/03/15 11:45:22;;;;;;;2.70;2.50;;;15.10;99.90;;;;;;4924627;29;20479;-25
2024/03/15 11:47:52;;;;;;;3.73;2.57;;;15.10;99.90;;;;;;4907375;29;21065;-25
2024/03/15 11:50:18;;;;;;;3.07;2.60;;;15.10;99.90;;;;;;4924128;29;20850;-25
2024/03/15 11:53:00;;;;;;;3.33;2.70;;;15.10;99.90;;;;;;4907407;29;20999;-25
2024/03/15 11:55:29;;;;;;;3.53;1.90;;;15.20;99.90;;;;;;4926058;29;21078;-26
2024/03/15 11:57:55;;;;;;;2.73;2.43;;;15.20;99.90;;;;;;4924164;29;21174;-25
2024/03/15 12:00:23;;;;;;;5.30;2.40;;;15.10;99.90;;;;;;4909236;29;20471;-26
2024/03/15 12:02:57;;;;;;;6.30;2.47;;;15.20;99.90;;;;;;4890877;29;20554;-26
2024/03/15 12:05:23;;;;;;;2.77;2.37;;;14.90;99.90;;;;;;4905644;29;20472;-26
2024/03/15 12:07:53;;;;;;;3.90;2.80;;;15.20;99.90;;;;;;4873278;29;20523;-26
2024/03/15 12:10:21;;;;;;;5.70;2.47;;;15.30;99.90;;;;;;4923001;29;20495;-24
2024/03/15 12:12:47;;;;;;;4.13;2.47;;;15.30;99.90;;;;;;4924288;29;20531;-25
2024/03/15 12:15:29;;;;;;;4.37;2.40;;;15.30;99.90;;;;;;4906782;29;21224;-25
2024/03/15 12:17:59;;;;;;;3.00;2.40;;;15.30;99.90;;;;;;4924568;29;20436;-26
2024/03/15 12:20:27;;;;;;;3.93;3.07;;;15.30;99.90;;;;;;4907251;29;20443;-27
2024/03/15 12:23:00;;;;;;;3.60;2.40;;;15.30;99.90;;;;;;4893765;29;20509;-26
2024/03/15 12:25:29;;;;;;;2.47;2.27;;;15.30;99.90;;;;;;4925076;29;20508;-25
2024/03/15 12:27:55;;;;;;;4.17;2.30;;;15.40;99.90;;;;;;4907160;29;20433;-25
2024/03/15 12:30:21;;;;;;;2.63;2.43;;;15.40;99.90;;;;;;4923762;29;20448;-27
2024/03/15 12:32:49;;;;;;;3.13;2.20;;;15.40;99.90;;;;;;4924549;29;20429;-24
2024/03/15 12:35:15;;;;;;;2.60;2.40;;;15.40;99.90;;;;;;4928120;29;20428;-26
2024/03/15 12:37:45;;;;;;;4.67;2.67;;;15.40;99.90;;;;;;4910853;29;21378;-30
2024/03/15 12:40:18;;;;;;;2.63;2.37;;;15.50;99.90;;;;;;4910564;29;20440;-26
2024/03/15 12:42:46;;;;;;;2.90;2.60;;;15.50;99.90;;;;;;4928522;29;20947;-28
2024/03/15 12:45:15;;;;;;;2.50;2.20;;;15.50;99.90;;;;;;4928451;29;20495;-27
2024/03/15 12:47:41;;;;;;;3.73;3.10;;;15.30;99.90;;;;;;4927684;29;20436;-25
2024/03/15 12:50:23;;;;;;;3.03;2.37;;;15.50;99.90;;;;;;4927964;29;20429;-28
2024/03/15 12:52:50;;;;;;;3.77;2.87;;;15.40;99.90;;;;;;4927873;29;20821;-28